createdAt,value
2019-06-01T00:02:28.414Z,11.50
2019-06-01T00:05:32.731Z,12.47
2019-06-01T00:08:37.008Z,13.07
2019-06-01T00:11:41.402Z,13.77
2019-06-01T00:14:46.089Z,12.77
2019-06-01T00:17:51.028Z,13.67
2019-06-01T00:20:55.312Z,12.80
2019-06-01T00:23:59.766Z,13.00
2019-06-01T00:27:04.233Z,12.70
2019-06-01T00:30:09.236Z,11.80
2019-06-01T00:33:13.569Z,11.63
2019-06-01T00:36:17.879Z,11.63
2019-06-01T00:39:22.237Z,11.50
2019-06-01T00:42:26.669Z,10.90
2019-06-01T00:45:31.032Z,10.67
2019-06-01T00:48:35.316Z,11.43
2019-06-01T00:51:39.574Z,10.50
2019-06-01T00:54:45.175Z,11.70
2019-06-01T00:57:49.825Z,11.10
2019-06-01T01:00:55.263Z,10.47
2019-06-01T01:03:59.674Z,10.43
2019-06-01T01:07:04.076Z,9.37
2019-06-01T01:10:09.043Z,10.20
2019-06-01T01:13:16.321Z,11.13
2019-06-01T01:16:22.552Z,9.33
2019-06-01T01:19:27.012Z,9.60
2019-06-01T01:22:31.426Z,10.00
2019-06-01T01:25:35.861Z,9.47
2019-06-01T01:28:40.308Z,9.30
2019-06-01T01:31:44.659Z,10.20
2019-06-01T01:34:49.491Z,8.73
2019-06-01T01:37:58.207Z,9.03
2019-06-01T01:41:02.594Z,9.73
2019-06-01T01:44:06.948Z,8.70
2019-06-01T01:47:14.302Z,8.93
2019-06-01T01:50:17.980Z,10.00
2019-06-01T01:53:22.342Z,9.30
2019-06-01T01:56:26.734Z,9.60
2019-06-01T01:59:31.082Z,9.67
2019-06-01T02:02:35.483Z,9.83
2019-06-01T02:05:39.813Z,9.50
2019-06-01T02:08:44.136Z,8.47
2019-06-01T02:11:48.477Z,9.33
2019-06-01T02:14:53.705Z,9.20
2019-06-01T02:17:58.218Z,8.40
2019-06-01T02:21:02.752Z,8.80
2019-06-01T02:24:07.223Z,9.50
2019-06-01T02:27:11.558Z,9.27
2019-06-01T02:30:17.405Z,9.93
2019-06-01T02:33:21.794Z,10.50
2019-06-01T02:36:26.152Z,11.07
2019-06-01T02:39:30.520Z,10.47
2019-06-01T02:42:34.853Z,10.50
2019-06-01T02:45:39.260Z,10.27
2019-06-01T02:48:43.535Z,10.43
2019-06-01T02:51:47.925Z,10.47
2019-06-01T02:54:52.176Z,10.27
2019-06-01T02:57:56.499Z,11.17
2019-06-01T03:01:36.162Z,10.27
2019-06-01T03:04:40.907Z,9.70
2019-06-01T03:07:47.081Z,10.20
2019-06-01T03:10:52.600Z,9.87
2019-06-01T03:13:58.821Z,9.80
2019-06-01T03:17:05.889Z,9.87
2019-06-01T03:20:10.303Z,9.43
2019-06-01T03:23:17.656Z,9.43
2019-06-01T03:26:23.492Z,10.37
2019-06-01T03:29:31.388Z,9.83
2019-06-01T03:32:37.386Z,10.83
2019-06-01T03:35:41.718Z,11.40
2019-06-01T03:38:46.048Z,11.37
2019-06-01T03:41:51.373Z,12.20
2019-06-01T03:44:55.720Z,12.03
2019-06-01T03:48:00.527Z,12.13
2019-06-01T03:51:05.670Z,11.70
2019-06-01T03:54:10.323Z,11.17
2019-06-01T03:57:14.665Z,11.50
2019-06-01T04:00:19.098Z,11.87
2019-06-01T04:03:23.430Z,11.70
2019-06-01T04:06:27.754Z,11.50
2019-06-01T04:09:32.112Z,10.13
2019-06-01T04:12:36.517Z,13.13
2019-06-01T04:15:41.105Z,11.20
2019-06-01T04:18:45.440Z,11.90
2019-06-01T04:21:49.718Z,11.73
2019-06-01T04:24:54.044Z,11.17
2019-06-01T04:27:58.396Z,11.10
2019-06-01T04:31:02.717Z,11.63
2019-06-01T04:34:07.072Z,12.20
2019-06-01T04:37:11.412Z,12.40
2019-06-01T04:40:15.852Z,12.37
2019-06-01T04:43:20.261Z,12.40
2019-06-01T04:46:24.614Z,11.83
2019-06-01T04:49:29.012Z,11.50
2019-06-01T04:52:33.291Z,12.00
2019-06-01T04:55:37.709Z,12.30
2019-06-01T04:58:42.110Z,12.40
2019-06-01T05:01:46.501Z,11.50
2019-06-01T05:04:50.862Z,13.23
2019-06-01T05:07:55.534Z,14.00
2019-06-01T05:10:59.881Z,13.20
2019-06-01T05:14:05.432Z,13.07
2019-06-01T05:17:10.191Z,13.10
2019-06-01T05:20:16.667Z,13.03
2019-06-01T05:23:21.258Z,12.33
2019-06-01T05:26:26.862Z,13.03
2019-06-01T05:29:31.306Z,13.97
2019-06-01T05:32:35.815Z,12.93
2019-06-01T05:35:40.585Z,13.13
2019-06-01T05:38:45.429Z,13.50
2019-06-01T05:41:49.846Z,14.20
2019-06-01T05:44:54.306Z,13.17
2019-06-01T05:47:58.710Z,14.17
2019-06-01T05:51:04.249Z,15.20
2019-06-01T05:54:08.951Z,14.97
2019-06-01T05:57:14.616Z,13.40
2019-06-01T06:00:21.918Z,15.50
2019-06-01T06:03:39.897Z,16.00
2019-06-01T06:06:33.165Z,15.50
2019-06-01T06:09:37.698Z,16.13
2019-06-01T06:12:42.391Z,16.87
2019-06-01T06:15:48.430Z,16.23
2019-06-01T06:18:52.944Z,16.40
2019-06-01T06:21:57.466Z,17.60
2019-06-01T06:25:01.910Z,15.87
2019-06-01T06:28:06.350Z,16.60
2019-06-01T06:31:10.944Z,16.43
2019-06-01T06:34:15.483Z,16.60
2019-06-01T06:37:19.920Z,17.63
2019-06-01T06:40:24.684Z,16.53
2019-06-01T06:43:33.177Z,16.97
2019-06-01T06:46:35.237Z,15.60
2019-06-01T06:49:39.693Z,15.83
2019-06-01T06:52:44.119Z,15.37
2019-06-01T06:55:48.873Z,15.33
2019-06-01T06:58:53.308Z,15.43
2019-06-01T07:01:57.717Z,14.87
2019-06-01T07:05:02.045Z,14.17
2019-06-01T07:08:06.421Z,13.63
2019-06-01T07:11:11.962Z,12.47
2019-06-01T07:14:17.010Z,13.43
2019-06-01T07:17:21.554Z,12.47
2019-06-01T07:20:25.959Z,11.97
2019-06-01T07:23:30.538Z,12.07
2019-06-01T07:26:34.953Z,11.83
2019-06-01T07:29:39.535Z,12.23
2019-06-01T07:32:43.992Z,12.13
2019-06-01T07:35:48.414Z,12.03
2019-06-01T07:38:52.817Z,11.43
2019-06-01T07:41:59.249Z,12.00
2019-06-01T07:45:03.728Z,11.37
2019-06-01T07:48:08.141Z,10.60
2019-06-01T07:51:12.541Z,11.43
2019-06-01T07:54:16.934Z,10.50
2019-06-01T07:57:21.635Z,11.33
2019-06-01T08:00:27.206Z,11.60
2019-06-01T08:03:34.705Z,10.17
2019-06-01T08:06:44.445Z,10.80
2019-06-01T08:09:43.749Z,11.00
2019-06-01T08:12:48.165Z,11.47
2019-06-01T08:15:52.646Z,11.10
2019-06-01T08:18:57.092Z,10.13
2019-06-01T08:22:01.529Z,10.80
2019-06-01T08:25:06.303Z,10.33
2019-06-01T08:28:10.786Z,11.10
2019-06-01T08:31:15.288Z,11.23
2019-06-01T08:34:22.716Z,9.80
2019-06-01T08:37:29.524Z,9.50
2019-06-01T08:40:33.975Z,9.10
2019-06-01T08:43:38.508Z,8.27
2019-06-01T08:46:42.943Z,6.73
2019-06-01T08:49:47.324Z,7.17
2019-06-01T08:52:51.763Z,7.60
2019-06-01T08:55:56.121Z,7.27
2019-06-01T08:59:00.556Z,6.23
2019-06-01T09:02:04.988Z,7.17
2019-06-01T09:05:23.387Z,6.43
2019-06-01T09:08:16.144Z,5.70
2019-06-01T09:11:20.602Z,5.13
2019-06-01T09:14:25.245Z,4.60
2019-06-01T09:17:29.707Z,5.73
2019-06-01T09:20:38.359Z,17.23
2019-06-01T09:23:41.331Z,5.60
2019-06-01T09:26:45.773Z,9.77
2019-06-01T09:29:50.253Z,8.57
2019-06-01T09:32:54.712Z,4.17
2019-06-01T09:36:00.204Z,3.23
2019-06-01T09:39:06.879Z,3.53
2019-06-01T09:42:11.305Z,3.20
2019-06-01T09:45:16.490Z,3.63
2019-06-01T09:48:20.899Z,3.23
2019-06-01T09:51:25.496Z,3.20
2019-06-01T09:54:31.351Z,5.20
2019-06-01T09:57:36.263Z,3.87
2019-06-01T10:00:43.934Z,3.50
2019-06-01T10:03:48.657Z,2.63
2019-06-01T10:06:53.112Z,2.97
2019-06-01T10:09:57.630Z,15.60
2019-06-01T10:13:02.102Z,3.53
2019-06-01T10:16:06.640Z,2.83
2019-06-01T10:19:11.651Z,3.43
2019-06-01T10:22:16.216Z,3.43
2019-06-01T10:25:21.835Z,3.27
2019-06-01T10:28:26.282Z,5.10
2019-06-01T10:31:34.575Z,2.80
2019-06-01T10:34:39.864Z,2.80
2019-06-01T10:37:44.567Z,2.70
2019-06-01T10:40:49.039Z,2.60
2019-06-01T10:43:53.434Z,2.90
2019-06-01T10:46:57.932Z,3.00
2019-06-01T10:50:02.387Z,3.20
2019-06-01T10:53:06.946Z,3.07
2019-06-01T10:56:11.367Z,2.80
2019-06-01T10:59:15.827Z,2.30
2019-06-01T11:02:23.331Z,2.40
2019-06-01T11:05:27.758Z,3.30
2019-06-01T11:08:32.808Z,3.13
2019-06-01T11:11:37.356Z,3.33
2019-06-01T11:14:43.228Z,2.50
2019-06-01T11:17:48.040Z,2.30
2019-06-01T11:20:52.489Z,2.30
2019-06-01T11:23:56.962Z,2.40
2019-06-01T11:27:01.530Z,2.70
2019-06-01T11:30:07.581Z,2.57
2019-06-01T11:33:12.004Z,2.67
2019-06-01T11:36:16.501Z,2.50
2019-06-01T11:39:20.884Z,3.10
2019-06-01T11:42:25.358Z,2.50
2019-06-01T11:45:29.909Z,2.67
2019-06-01T11:48:35.169Z,3.00
2019-06-01T11:51:40.142Z,2.40
2019-06-01T11:54:45.939Z,2.30
2019-06-01T11:57:51.573Z,2.20
2019-06-01T12:00:57.088Z,2.17
2019-06-01T12:04:01.451Z,1.50
2019-06-01T12:07:17.190Z,1.73
2019-06-01T12:10:12.852Z,1.87
2019-06-01T12:13:17.343Z,1.63
2019-06-01T12:16:21.934Z,1.77
2019-06-01T12:19:26.679Z,1.70
2019-06-01T12:22:31.213Z,2.40
2019-06-01T12:25:35.764Z,2.00
2019-06-01T12:28:43.784Z,2.40
2019-06-01T12:31:48.552Z,2.50
2019-06-01T12:34:54.179Z,1.90
2019-06-01T12:38:06.502Z,1.80
2019-06-01T12:41:07.130Z,1.93
2019-06-01T12:44:16.299Z,1.80
2019-06-01T12:47:21.004Z,4.00
2019-06-01T12:50:25.821Z,2.13
2019-06-01T12:53:32.266Z,2.90
2019-06-01T12:56:36.666Z,2.50
2019-06-01T12:59:41.299Z,2.17
2019-06-01T13:02:54.494Z,2.70
2019-06-01T13:05:51.940Z,2.63
2019-06-01T13:08:56.421Z,2.63
2019-06-01T13:12:00.848Z,2.70
2019-06-01T13:15:05.735Z,2.90
2019-06-01T13:18:11.493Z,3.30
2019-06-01T13:21:15.985Z,3.33
2019-06-01T13:24:20.375Z,3.17
2019-06-01T13:27:24.782Z,2.73
2019-06-01T13:30:29.181Z,2.87
2019-06-01T13:33:33.617Z,2.40
2019-06-01T13:36:37.973Z,2.43
2019-06-01T13:39:42.977Z,2.07
2019-06-01T13:42:49.049Z,2.20
2019-06-01T13:45:53.693Z,2.07
2019-06-01T13:48:58.026Z,1.70
2019-06-01T13:52:04.034Z,1.80
2019-06-01T13:55:08.857Z,1.97
2019-06-01T13:58:13.339Z,1.90
2019-06-01T14:01:17.777Z,2.20
2019-06-01T14:04:22.286Z,1.80
2019-06-01T14:07:26.717Z,2.13
2019-06-01T14:10:31.084Z,1.93
2019-06-01T14:13:35.473Z,2.13
2019-06-01T14:16:39.902Z,2.20
2019-06-01T14:19:45.528Z,2.27
2019-06-01T14:22:50.120Z,1.93
2019-06-01T14:25:54.522Z,2.30
2019-06-01T14:28:58.969Z,2.40
2019-06-01T14:32:03.373Z,2.10
2019-06-01T14:35:08.626Z,2.87
2019-06-01T14:38:13.043Z,2.10
2019-06-01T14:41:17.454Z,2.27
2019-06-01T14:44:22.027Z,2.57
2019-06-01T14:47:26.760Z,2.53
2019-06-01T14:50:31.209Z,2.23
2019-06-01T14:53:35.864Z,3.10
2019-06-01T14:56:40.318Z,2.80
2019-06-01T14:59:44.817Z,3.20
2019-06-01T15:02:51.939Z,3.47
2019-06-01T15:05:58.598Z,3.43
2019-06-01T15:09:17.612Z,3.40
2019-06-01T15:12:09.322Z,3.37
2019-06-01T15:15:14.351Z,3.30
2019-06-01T15:18:18.829Z,3.50
2019-06-01T15:21:25.097Z,3.37
2019-06-01T15:24:29.994Z,3.10
2019-06-01T15:27:34.359Z,3.43
2019-06-01T15:30:38.782Z,3.53
2019-06-01T15:33:43.175Z,3.43
2019-06-01T15:36:47.821Z,3.93
2019-06-01T15:39:52.601Z,3.77
2019-06-01T15:42:57.417Z,3.63
2019-06-01T15:46:02.137Z,3.37
2019-06-01T15:49:06.700Z,3.80
2019-06-01T15:52:11.064Z,3.50
2019-06-01T15:55:16.156Z,3.80
2019-06-01T15:58:20.523Z,3.40
2019-06-01T16:01:24.951Z,3.97
2019-06-01T16:04:29.311Z,3.90
2019-06-01T16:07:33.766Z,3.53
2019-06-01T16:10:38.136Z,3.53
2019-06-01T16:13:43.776Z,3.57
2019-06-01T16:16:48.166Z,4.10
2019-06-01T16:19:53.826Z,4.30
2019-06-01T16:22:58.274Z,4.20
2019-06-01T16:26:14.753Z,4.27
2019-06-01T16:29:08.864Z,4.73
2019-06-01T16:32:13.272Z,4.60
2019-06-01T16:35:17.701Z,4.57
2019-06-01T16:38:22.162Z,5.23
2019-06-01T16:41:26.979Z,4.70
2019-06-01T16:44:31.419Z,5.13
2019-06-01T16:47:35.795Z,5.83
2019-06-01T16:50:40.225Z,6.20
2019-06-01T16:53:44.665Z,5.23
2019-06-01T16:56:49.139Z,6.10
2019-06-01T16:59:54.027Z,6.07
2019-06-01T17:02:58.488Z,6.17
2019-06-01T17:06:02.949Z,6.33
2019-06-01T17:09:08.579Z,6.60
2019-06-01T17:12:12.979Z,5.73
2019-06-01T17:15:17.582Z,5.90
2019-06-01T17:18:24.398Z,5.93
2019-06-01T17:21:28.810Z,6.03
2019-06-01T17:24:33.172Z,6.40
2019-06-01T17:27:37.659Z,5.50
2019-06-01T17:30:42.324Z,5.57
2019-06-01T17:33:46.810Z,6.47
2019-06-01T17:36:51.319Z,6.13
2019-06-01T17:39:55.817Z,6.00
2019-06-01T17:43:01.268Z,6.43
2019-06-01T17:46:05.830Z,6.27
2019-06-01T17:49:10.268Z,6.10
2019-06-01T17:52:14.834Z,7.60
2019-06-01T17:55:34.085Z,6.67
2019-06-01T17:58:38.542Z,7.97
2019-06-01T18:01:43.009Z,6.37
2019-06-01T18:04:48.303Z,6.07
2019-06-01T18:07:52.765Z,7.07
2019-06-01T18:10:57.196Z,7.07
2019-06-01T18:14:02.141Z,6.93
2019-06-01T18:17:06.710Z,6.67
2019-06-01T18:20:12.870Z,6.47
2019-06-01T18:23:17.375Z,7.00
2019-06-01T18:26:21.754Z,5.87
2019-06-01T18:29:26.239Z,7.00
2019-06-01T18:32:30.716Z,5.77
2019-06-01T18:35:35.389Z,6.23
2019-06-01T18:38:42.862Z,5.83
2019-06-01T18:41:49.374Z,6.10
2019-06-01T18:44:53.763Z,6.60
2019-06-01T18:47:59.248Z,6.43
2019-06-01T18:51:04.002Z,5.73
2019-06-01T18:54:08.746Z,6.87
2019-06-01T18:57:19.285Z,6.23
2019-06-01T19:00:20.883Z,6.50
2019-06-01T19:03:25.301Z,6.23
2019-06-01T19:06:29.941Z,6.57
2019-06-01T19:09:34.376Z,6.63
2019-06-01T19:12:39.823Z,6.53
2019-06-01T19:15:44.262Z,7.13
2019-06-01T19:18:48.722Z,6.97
2019-06-01T19:21:53.142Z,7.23
2019-06-01T19:24:57.562Z,7.83
2019-06-01T19:28:02.273Z,8.40
2019-06-01T19:31:06.836Z,8.33
2019-06-01T19:34:11.268Z,8.60
2019-06-01T19:37:17.465Z,9.07
2019-06-01T19:40:24.835Z,10.73
2019-06-01T19:43:30.734Z,9.93
2019-06-01T19:46:35.132Z,10.03
2019-06-01T19:49:43.739Z,11.27
2019-06-01T19:52:46.437Z,10.70
2019-06-01T19:55:50.911Z,11.10
2019-06-01T19:58:55.378Z,10.90
2019-06-01T20:02:02.186Z,11.33
2019-06-01T20:05:06.871Z,11.47
2019-06-01T20:08:12.353Z,11.47
2019-06-01T20:11:17.193Z,10.70
2019-06-01T20:14:23.350Z,10.93
2019-06-01T20:17:27.972Z,11.23
2019-06-01T20:20:32.531Z,11.17
2019-06-01T20:23:37.125Z,10.73
2019-06-01T20:26:48.927Z,10.47
2019-06-01T20:29:49.508Z,10.70
2019-06-01T20:32:55.856Z,10.27
2019-06-01T20:36:01.531Z,10.37
2019-06-01T20:39:08.384Z,9.70
2019-06-01T20:42:22.282Z,10.60
2019-06-01T20:45:19.033Z,11.70
2019-06-01T20:48:23.390Z,11.20
2019-06-01T20:51:28.017Z,11.23
2019-06-01T20:54:32.766Z,12.30
2019-06-01T20:57:37.146Z,13.13
2019-06-01T21:00:43.299Z,13.00
2019-06-01T21:03:47.756Z,14.23
2019-06-01T21:06:52.174Z,14.17
2019-06-01T21:09:56.647Z,14.30
2019-06-01T21:13:01.113Z,13.90
2019-06-01T21:16:05.604Z,13.27
2019-06-01T21:19:10.132Z,14.03
2019-06-01T21:22:14.623Z,14.47
2019-06-01T21:25:19.050Z,13.63
2019-06-01T21:28:24.163Z,14.27
2019-06-01T21:31:29.574Z,14.17
2019-06-01T21:34:33.998Z,14.03
2019-06-01T21:37:38.394Z,14.37
2019-06-01T21:40:43.497Z,14.43
2019-06-01T21:43:47.864Z,13.50
2019-06-01T21:46:52.654Z,13.67
2019-06-01T21:49:56.943Z,12.83
2019-06-01T21:53:01.339Z,13.20
2019-06-01T21:56:05.727Z,13.37
2019-06-01T21:59:10.399Z,12.80
2019-06-01T22:02:14.986Z,12.47
2019-06-01T22:05:19.387Z,12.20
2019-06-01T22:08:23.827Z,12.57
2019-06-01T22:11:28.262Z,11.70
2019-06-01T22:14:32.674Z,12.37
2019-06-01T22:17:37.132Z,12.03
2019-06-01T22:20:42.839Z,11.77
2019-06-01T22:23:47.253Z,12.57
2019-06-01T22:26:51.557Z,11.43
2019-06-01T22:29:56.120Z,11.77
2019-06-01T22:33:01.618Z,11.80
2019-06-01T22:36:06.101Z,12.50
2019-06-01T22:39:10.697Z,11.30
2019-06-01T22:42:15.243Z,12.33
2019-06-01T22:45:20.079Z,12.20
2019-06-01T22:48:24.662Z,11.67
2019-06-01T22:51:29.523Z,12.53
2019-06-01T22:54:34.156Z,11.47
2019-06-01T22:57:38.644Z,12.20
2019-06-01T23:00:43.085Z,11.83
2019-06-01T23:03:47.482Z,12.70
2019-06-01T23:06:51.911Z,11.73
2019-06-01T23:09:56.348Z,12.30
2019-06-01T23:13:00.817Z,12.70
2019-06-01T23:16:05.794Z,12.03
2019-06-01T23:19:12.727Z,12.03
2019-06-01T23:22:17.227Z,11.90
2019-06-01T23:25:22.541Z,12.87
2019-06-01T23:28:28.423Z,13.00
2019-06-01T23:31:34.802Z,12.70
2019-06-01T23:34:39.143Z,13.40
2019-06-01T23:37:43.550Z,13.07
2019-06-01T23:40:47.907Z,12.63
2019-06-01T23:44:09.956Z,12.30
2019-06-01T23:46:58.454Z,12.37
2019-06-01T23:50:02.908Z,13.93
2019-06-01T23:53:13.514Z,13.47
2019-06-01T23:56:13.475Z,13.13
2019-06-01T23:59:17.872Z,13.63
